EBBR

Brussels Airport

Brussels, Belgium
METAR EBBR 160550Z 17005KT CAVOK 10/09 Q1017 NOSIG
Observed Flight Rules
Oct-16 @ 05:50 UTC (25 minutes ago) Visual Flight Rules
Wind Visibility Clouds
170° at 5 knots 10,000+ meters
  • Clear skies
Temperatures Readings
Current 10°C / 50°F
Dewpoint 9°C / 48°F
Humidity 94%
Altimeter 30.03" Hg
Pressure 1017 hPa
Elevation 58
METAR EBBR 160550Z 17005KT CAVOK 10/09 Q1017 NOSIG
Observed Flight Rules
Oct-16 @ 05:50 UTC
(25 minutes ago)
VFR
Wind Visibility
170° at 5 knots 10,000+ meters
Clouds
  • Clear skies
Temperature Dewpoint
10°C / 50°F 9°C / 48°F
Humidity Altimeter Pressure
94% 30.03" Hg 1017 hPa